Negotin, Serbia
Current Conditions -  °F | °C
As of 12:30 PM on Tuesday 27 Jan 2015 (Local Time) from LRCV Reporting Station
Broken Clouds Broken Clouds  
Wind Chill: 30°   Ceiling: 2600
Heat Index: 37°   Visibility: 4mi
Dew Point: 34°   Wind: 12mph
Humidity: 87%   Direction: 100°E
Pressure: 30"   Gusts: NA
Location:  44.23°N, 22.53°E
Report Text: LRCV 271030Z 10010KT 7000 FEW007 BKN026 03/01 Q1016
Loading
Personal Weather Stations






























Interactive Weather Map New forecast layout! Learn more

10-Day Weather Forecast

Advertisements
Track Severe Weather on mobile